Airfield :
LOGIN :

Register | Disclaimer

   EN    FR    IT 

 










Legend :    VFR   Marginal VFR   IFR   Intensive IFR   Very Intensive IFR
Visi :
Ceiling :
>= 8 km
>= 3000ft
5 to 8 km
1000 to 3000 ft
1500m to 5 km
500 to 1000 ft
800 to 1500m
200 to 500 ft
< 800m
< 200 ft
Symbols :   Thunderstorms  Fog  Heavy snow  Heavy precipitations  Wind > 20 kt
SIGMETs :     Misc.  Thunderstorms  Icing  Turbulence  Mountain Waves  Volcanic Ashes






- Airport Elevation : 2625 ft
- IATA code : LEU


LESU - Aeròdrom dels Pirineus-Alt Urgell

CURRENT METAR :
  • 211100Z 31012KT 9999 FEW060 26/09 Q1012

EXPIRED METARs :
  • 211030Z 11006KT 050V170 9999 FEW060 25/11 Q1012
  • 211000Z 09006KT 030V160 9999 FEW057 24/11 Q1012
  • 210930Z 07006KT 350V110 9999 FEW051 23/12 Q1012
  • 210900Z 05007KT 340V080 9999 SCT051 22/11 Q1012
  • 210830Z 05010KT 9999 SCT051 22/12 Q1012
  • 210800Z 06011KT 9999 BKN052 20/11 Q1012

TAF TAF LESU
Valid from the 21 at 09:00 until the 22 at 09:00 UTC


210800Z 2109/2209 VRB04KT 9999 FEW040 TX29/2114Z TN11/2205Z
PROB30
TEMPO 2109/2111 4000 RA SHRA FEW040TCU
BECMG 2110/2112 35010KT
BECMG 2118/2120 VRB04KT



MET'MAP, your aeronautical weather chart ! - Copyright ORBIFLY December 2007 - Disclaimer

ORBIFLY MET'MAP TEAM :

Programming & Development : Alexandra Zaïnal
Original concept : Baudouin d'Aumeries
Technical & hardware support : Manuel Goepfert
Assistance : Marc-Olivier Méhu




SOURCES & CREDITS :

   NOAA